Time;durP1;ratioP1;P1;durP2;ratioP2;P2;SDS_P1;SDS_P2;PMS_P1;PMS_P2;Temp;Humidity;BMP_temperature;BMP_pressure;BME280_temperature;BME280_humidity;BME280_pressure;Samples;Min_cycle;Max_cycle;Signal;HPM_P1;HPM_P2
2021/11/06 00:00:40;;;;;;;16.20;6.13;;;9.30;99.90;;;;;;5125157;27;39800;-73
2021/11/06 00:03:06;;;;;;;12.90;5.07;;;9.20;99.90;;;;;;5114073;27;40245;-74
2021/11/06 00:05:33;;;;;;;12.77;5.17;;;9.10;99.90;;;;;;5125387;27;39318;-73
2021/11/06 00:07:59;;;;;;;7.83;4.87;;;9.10;99.90;;;;;;5134328;27;38064;-73
2021/11/06 00:10:26;;;;;;;13.90;6.17;;;9.10;99.90;;;;;;5122021;27;40273;-73
2021/11/06 00:12:52;;;;;;;14.40;5.50;;;9.10;99.90;;;;;;5133898;27;39634;-74
2021/11/06 00:15:19;;;;;;;12.93;5.20;;;9.10;99.90;;;;;;5133340;27;37872;-74
2021/11/06 00:17:45;;;;;;;13.63;6.33;;;9.00;99.90;;;;;;5129369;27;37539;-73
2021/11/06 00:20:13;;;;;;;12.33;5.90;;;8.90;99.90;;;;;;5130368;27;40931;-74
2021/11/06 00:22:40;;;;;;;10.83;5.90;;;8.90;99.90;;;;;;5128072;27;39041;-73
2021/11/06 00:25:08;;;;;;;12.00;5.13;;;8.80;99.90;;;;;;5122975;27;39638;-73
2021/11/06 00:27:35;;;;;;;14.40;6.13;;;8.80;99.90;;;;;;5130293;27;36054;-73
2021/11/06 00:30:03;;;;;;;11.37;5.83;;;8.80;99.90;;;;;;5126971;27;39790;-73
2021/11/06 00:32:29;;;;;;;14.30;5.93;;;8.80;99.90;;;;;;5127388;27;41103;-73
2021/11/06 00:34:55;;;;;;;12.53;5.70;;;8.80;99.90;;;;;;5126991;27;40194;-73
2021/11/06 00:37:21;;;;;;;17.20;6.13;;;8.80;99.90;;;;;;5134374;27;39133;-73
2021/11/06 00:39:47;;;;;;;11.10;5.23;;;8.70;99.90;;;;;;5130454;27;40043;-73
2021/11/06 00:42:13;;;;;;;9.23;4.67;;;8.70;99.90;;;;;;5131348;27;39187;-73
2021/11/06 00:44:39;;;;;;;12.03;5.80;;;8.60;99.90;;;;;;5130409;27;38646;-73
2021/11/06 00:47:06;;;;;;;13.47;5.90;;;8.50;99.90;;;;;;5115670;27;38046;-73
2021/11/06 00:49:33;;;;;;;12.03;5.33;;;8.40;99.90;;;;;;5134767;27;38648;-73
2021/11/06 00:51:59;;;;;;;10.93;5.77;;;8.30;99.90;;;;;;5131986;27;38521;-73
2021/11/06 00:54:25;;;;;;;10.90;6.13;;;8.20;99.90;;;;;;5132616;27;39937;-73
2021/11/06 00:56:51;;;;;;;10.83;6.77;;;8.30;99.90;;;;;;5123619;27;37808;-73
2021/11/06 00:59:17;;;;;;;10.83;5.93;;;8.30;99.90;;;;;;5116705;27;39783;-73
2021/11/06 01:01:43;;;;;;;13.77;7.63;;;8.30;99.90;;;;;;5116306;27;38447;-73
2021/11/06 01:04:09;;;;;;;15.53;6.37;;;8.30;99.90;;;;;;5123776;27;38880;-73
2021/11/06 01:06:35;;;;;;;13.83;7.20;;;8.30;99.90;;;;;;5130566;27;38908;-73
2021/11/06 01:09:02;;;;;;;17.83;7.93;;;8.50;99.90;;;;;;5126631;27;39369;-74
2021/11/06 01:11:28;;;;;;;18.23;8.00;;;8.60;99.90;;;;;;5127800;27;38351;-74
2021/11/06 01:13:54;;;;;;;16.00;7.67;;;8.70;99.90;;;;;;5134021;27;39474;-73
2021/11/06 01:16:21;;;;;;;14.00;6.93;;;8.60;99.90;;;;;;5128839;27;36743;-74
2021/11/06 01:18:47;;;;;;;14.73;8.27;;;8.60;99.90;;;;;;5130931;27;39245;-74
2021/11/06 01:21:13;;;;;;;20.03;9.13;;;8.60;99.90;;;;;;5129852;27;38403;-74
2021/11/06 01:23:39;;;;;;;15.20;8.00;;;8.60;99.90;;;;;;5130497;27;37787;-73
2021/11/06 01:26:05;;;;;;;15.73;8.30;;;8.70;99.90;;;;;;5130517;27;38954;-73
2021/11/06 01:28:32;;;;;;;14.13;7.97;;;8.70;99.90;;;;;;5128150;27;39663;-73
2021/11/06 01:30:58;;;;;;;15.43;8.43;;;8.70;99.90;;;;;;5116541;27;38949;-73
2021/11/06 01:33:25;;;;;;;17.27;9.37;;;8.70;99.90;;;;;;5111280;27;38025;-74
2021/11/06 01:35:51;;;;;;;19.20;8.60;;;8.70;99.90;;;;;;5130827;27;37159;-73
2021/11/06 01:38:17;;;;;;;14.50;9.23;;;8.70;99.90;;;;;;5112534;27;39832;-73
2021/11/06 01:40:44;;;;;;;17.80;9.83;;;8.80;99.90;;;;;;5104925;27;38849;-73
2021/11/06 01:43:10;;;;;;;14.53;10.17;;;8.90;99.90;;;;;;5131726;27;38879;-74
2021/11/06 01:45:36;;;;;;;21.63;9.80;;;9.00;99.90;;;;;;5131609;27;39372;-74
2021/11/06 01:48:02;;;;;;;20.17;10.97;;;9.10;99.90;;;;;;5131075;27;38226;-74
2021/11/06 01:50:28;;;;;;;19.07;9.87;;;9.10;99.90;;;;;;5123398;27;38145;-73
2021/11/06 01:52:54;;;;;;;13.97;9.80;;;9.10;99.90;;;;;;5129394;27;38694;-74
2021/11/06 01:55:21;;;;;;;15.93;9.77;;;9.10;99.90;;;;;;5133329;27;36831;-74
2021/11/06 01:57:48;;;;;;;15.20;9.00;;;9.20;99.90;;;;;;5151213;27;40188;-73
2021/11/06 02:00:22;;;;;;;14.83;9.10;;;9.20;99.90;;;;;;5128222;27;38025;-74
2021/11/06 02:02:48;;;;;;;16.53;9.90;;;9.20;99.90;;;;;;5156342;27;38027;-73
2021/11/06 02:05:16;;;;;;;25.40;10.13;;;9.20;99.90;;;;;;5126285;27;38160;-74
2021/11/06 02:07:42;;;;;;;15.23;9.63;;;9.20;99.90;;;;;;5135152;27;38666;-73
2021/11/06 02:10:10;;;;;;;14.93;9.23;;;9.20;99.90;;;;;;5130051;27;40136;-74
2021/11/06 02:12:37;;;;;;;18.70;10.33;;;9.20;99.90;;;;;;5132621;27;38561;-73
2021/11/06 02:15:05;;;;;;;22.13;11.07;;;9.30;99.90;;;;;;5151870;27;37664;-74
2021/11/06 02:17:32;;;;;;;17.53;9.97;;;9.30;99.90;;;;;;5144681;27;46214;-73
2021/11/06 02:19:58;;;;;;;14.37;9.37;;;9.40;99.90;;;;;;5130616;27;37866;-73
2021/11/06 02:22:24;;;;;;;14.97;10.20;;;9.40;99.90;;;;;;5142441;27;38647;-73
2021/11/06 02:24:52;;;;;;;14.37;9.33;;;9.50;99.90;;;;;;5128888;27;37583;-73
2021/11/06 02:27:22;;;;;;;22.70;10.53;;;9.50;99.90;;;;;;5131695;27;37739;-73
2021/11/06 02:29:48;;;;;;;17.83;11.00;;;9.50;99.90;;;;;;5127355;27;38872;-74
2021/11/06 02:32:15;;;;;;;16.40;10.70;;;9.50;99.90;;;;;;5151042;27;38770;-73
2021/11/06 02:34:41;;;;;;;14.60;10.80;;;9.60;99.90;;;;;;5132922;27;37635;-74
2021/11/06 02:37:07;;;;;;;19.47;9.90;;;9.60;99.90;;;;;;5128080;27;39950;-73
2021/11/06 02:39:34;;;;;;;15.13;10.00;;;9.60;99.90;;;;;;5131198;27;38769;-73
2021/11/06 02:42:03;;;;;;;13.27;9.37;;;9.60;99.90;;;;;;5149063;27;38318;-74
2021/11/06 02:44:30;;;;;;;16.33;9.37;;;9.60;99.90;;;;;;5120837;27;47299;-74
2021/11/06 02:46:56;;;;;;;16.13;9.83;;;9.60;99.90;;;;;;5144837;27;37252;-74
2021/11/06 02:49:22;;;;;;;17.70;9.63;;;9.60;99.90;;;;;;5146794;27;37320;-74
2021/11/06 02:51:49;;;;;;;15.93;9.97;;;9.60;99.90;;;;;;5146703;27;38462;-73
2021/11/06 02:54:16;;;;;;;15.60;9.87;;;9.60;99.90;;;;;;5148451;27;37361;-74
2021/11/06 02:56:42;;;;;;;19.30;10.10;;;9.60;99.90;;;;;;5124026;27;39745;-73
2021/11/06 02:59:08;;;;;;;24.63;11.03;;;9.60;99.90;;;;;;5150363;27;39120;-74
2021/11/06 03:01:34;;;;;;;17.83;10.97;;;9.60;99.90;;;;;;5150461;27;38030;-73
2021/11/06 03:04:00;;;;;;;15.90;10.53;;;9.70;99.90;;;;;;5129448;27;39173;-73
2021/11/06 03:06:27;;;;;;;16.73;10.07;;;9.70;99.90;;;;;;5147728;27;47465;-73
2021/11/06 03:08:53;;;;;;;16.57;10.53;;;9.70;99.90;;;;;;5151274;27;38444;-74
2021/11/06 03:11:19;;;;;;;17.43;10.30;;;9.70;99.90;;;;;;5125744;27;38542;-74
2021/11/06 03:13:46;;;;;;;16.20;10.43;;;9.70;99.90;;;;;;5136436;27;39204;-74
2021/11/06 03:16:14;;;;;;;20.17;11.43;;;9.70;99.90;;;;;;5131949;27;39301;-73
2021/11/06 03:18:40;;;;;;;13.87;9.80;;;9.80;99.90;;;;;;5149793;27;39842;-73
2021/11/06 03:21:06;;;;;;;18.70;11.50;;;9.80;99.90;;;;;;5150909;27;37961;-73
2021/11/06 03:23:33;;;;;;;19.40;12.93;;;9.80;99.90;;;;;;5136216;27;36167;-73
2021/11/06 03:25:59;;;;;;;23.07;13.47;;;9.90;99.90;;;;;;5154331;27;39544;-73
2021/11/06 03:28:26;;;;;;;23.47;12.83;;;9.90;99.90;;;;;;5154424;27;37076;-73
2021/11/06 03:30:52;;;;;;;21.90;12.77;;;10.00;99.90;;;;;;5152398;27;37015;-74
2021/11/06 03:33:19;;;;;;;22.60;13.33;;;10.00;99.90;;;;;;5135339;27;38208;-73
2021/11/06 03:35:45;;;;;;;21.73;13.40;;;10.10;99.90;;;;;;5154494;27;38781;-73
2021/11/06 03:38:11;;;;;;;19.80;13.10;;;10.00;99.90;;;;;;5137702;27;37596;-73
2021/11/06 03:40:37;;;;;;;24.63;14.97;;;10.10;99.90;;;;;;5129681;27;37386;-74
2021/11/06 03:43:04;;;;;;;19.20;14.43;;;10.10;99.90;;;;;;5156346;27;37146;-73
2021/11/06 03:45:30;;;;;;;25.90;16.27;;;10.20;99.90;;;;;;5154839;27;38552;-74
2021/11/06 03:47:56;;;;;;;24.30;14.53;;;10.20;99.90;;;;;;5150201;27;38315;-74
2021/11/06 03:50:22;;;;;;;21.23;14.70;;;10.30;99.90;;;;;;5159269;27;38140;-73
2021/11/06 03:52:48;;;;;;;21.67;15.87;;;10.30;99.90;;;;;;5159299;27;36974;-73
2021/11/06 03:55:15;;;;;;;22.60;13.97;;;10.40;99.90;;;;;;5152644;27;39452;-73
2021/11/06 03:57:41;;;;;;;22.47;14.67;;;10.30;99.90;;;;;;5134294;27;39201;-73
2021/11/06 04:00:10;;;;;;;25.40;15.37;;;10.40;99.90;;;;;;5153049;27;40552;-74
2021/11/06 04:02:36;;;;;;;23.33;15.40;;;10.40;99.90;;;;;;5154012;27;37062;-73
2021/11/06 04:05:04;;;;;;;20.47;14.07;;;10.30;99.90;;;;;;5152268;27;38636;-74
2021/11/06 04:07:30;;;;;;;21.73;16.03;;;10.40;99.90;;;;;;5133267;27;47316;-73
2021/11/06 04:09:56;;;;;;;25.00;15.43;;;10.30;99.90;;;;;;5130910;27;35773;-74
2021/11/06 04:12:22;;;;;;;20.87;14.83;;;10.30;99.90;;;;;;5154380;27;38754;-74
2021/11/06 04:14:48;;;;;;;23.10;14.27;;;10.30;99.90;;;;;;5157795;27;38335;-73
2021/11/06 04:17:14;;;;;;;21.37;14.40;;;10.20;99.90;;;;;;5128631;27;37256;-74
2021/11/06 04:19:41;;;;;;;27.40;16.23;;;10.20;99.90;;;;;;5127660;27;37968;-74
2021/11/06 04:22:07;;;;;;;25.07;15.53;;;10.20;99.90;;;;;;5110638;27;36435;-74
2021/11/06 04:24:33;;;;;;;21.37;15.23;;;10.30;99.90;;;;;;5132282;27;37369;-74
2021/11/06 04:26:59;;;;;;;22.10;13.97;;;10.20;99.90;;;;;;5124330;27;38795;-74
2021/11/06 04:29:25;;;;;;;23.20;15.50;;;10.30;99.90;;;;;;5128427;27;38377;-74
2021/11/06 04:31:51;;;;;;;26.77;15.30;;;10.20;99.90;;;;;;5127937;27;37172;-73
2021/11/06 04:34:17;;;;;;;22.83;14.87;;;10.20;99.90;;;;;;5132317;27;39224;-73
2021/11/06 04:36:44;;;;;;;20.67;14.03;;;10.30;99.90;;;;;;5131224;27;39377;-73
2021/11/06 04:39:10;;;;;;;23.13;15.27;;;10.30;99.90;;;;;;5129942;27;37000;-74
2021/11/06 04:41:38;;;;;;;20.97;15.00;;;10.30;99.90;;;;;;5124837;27;39444;-74
2021/11/06 04:44:04;;;;;;;23.23;15.07;;;10.30;99.90;;;;;;5135730;27;38828;-73
2021/11/06 04:46:30;;;;;;;24.30;15.43;;;10.30;99.90;;;;;;5132056;27;38660;-73
2021/11/06 04:48:56;;;;;;;22.13;16.00;;;10.30;99.90;;;;;;5115768;27;38108;-74
2021/11/06 04:51:22;;;;;;;24.47;16.67;;;10.30;99.90;;;;;;5131333;27;38047;-73
2021/11/06 04:53:48;;;;;;;20.67;14.67;;;10.30;99.90;;;;;;5115780;27;37999;-74
2021/11/06 04:56:15;;;;;;;22.73;15.43;;;10.30;99.90;;;;;;5132804;27;38121;-73
2021/11/06 04:58:41;;;;;;;21.20;13.43;;;10.30;99.90;;;;;;5114816;27;41691;-73
2021/11/06 05:01:07;;;;;;;22.73;15.70;;;10.30;99.90;;;;;;5132350;27;36348;-74
2021/11/06 05:03:33;;;;;;;21.30;16.10;;;10.30;99.90;;;;;;5129662;27;37370;-73
2021/11/06 05:05:59;;;;;;;20.87;14.30;;;10.20;99.90;;;;;;5125909;27;37644;-74
2021/11/06 05:08:25;;;;;;;26.30;16.70;;;10.10;99.90;;;;;;5151897;27;38157;-73
2021/11/06 05:10:52;;;;;;;25.93;16.67;;;10.10;99.90;;;;;;5136935;27;38003;-73
2021/11/06 05:13:18;;;;;;;26.23;17.60;;;10.10;99.90;;;;;;5133176;27;38561;-73
2021/11/06 05:15:45;;;;;;;24.10;16.33;;;10.00;99.90;;;;;;5128099;27;38592;-73
2021/11/06 05:18:13;;;;;;;26.57;18.40;;;10.10;99.90;;;;;;5126075;27;37134;-73
2021/11/06 05:20:42;;;;;;;25.50;16.83;;;10.10;99.90;;;;;;5134473;27;37446;-73
2021/11/06 05:23:08;;;;;;;24.87;16.97;;;10.00;99.90;;;;;;5123500;27;39224;-73
2021/11/06 05:25:34;;;;;;;24.90;18.23;;;10.00;99.90;;;;;;5123646;27;35900;-73
2021/11/06 05:28:00;;;;;;;28.43;18.67;;;10.00;99.90;;;;;;5130316;27;37857;-73
2021/11/06 05:30:26;;;;;;;26.37;18.20;;;10.00;99.90;;;;;;5128787;27;38982;-73
2021/11/06 05:32:52;;;;;;;27.60;19.80;;;10.00;99.90;;;;;;5126481;27;38540;-73
2021/11/06 05:35:18;;;;;;;27.67;20.53;;;10.00;99.90;;;;;;5123269;27;38633;-73
2021/11/06 05:37:45;;;;;;;32.40;20.57;;;10.10;99.90;;;;;;5123935;27;38600;-73
2021/11/06 05:40:11;;;;;;;26.57;18.13;;;10.00;99.90;;;;;;5121287;27;38306;-73
2021/11/06 05:42:40;;;;;;;28.93;20.40;;;10.10;99.90;;;;;;5125294;27;37177;-73
2021/11/06 05:45:08;;;;;;;25.43;18.83;;;10.10;99.90;;;;;;5120552;27;39352;-74
2021/11/06 05:47:36;;;;;;;27.30;18.30;;;10.10;99.90;;;;;;5122744;27;41368;-74
2021/11/06 05:50:05;;;;;;;23.73;18.60;;;10.10;99.90;;;;;;5126617;27;38226;-74
2021/11/06 05:52:31;;;;;;;26.97;18.63;;;10.10;99.90;;;;;;5145091;27;36947;-74
2021/11/06 05:54:57;;;;;;;21.57;18.07;;;10.10;99.90;;;;;;5130455;27;39318;-74
2021/11/06 05:57:23;;;;;;;25.87;18.37;;;10.10;99.90;;;;;;5131327;27;38055;-74
2021/11/06 05:59:50;;;;;;;25.60;18.10;;;10.10;99.90;;;;;;5132227;27;37593;-74
2021/11/06 06:02:16;;;;;;;22.90;17.03;;;10.10;99.90;;;;;;5136007;27;38675;-73
2021/11/06 06:04:42;;;;;;;26.00;19.27;;;10.20;99.90;;;;;;5125201;27;39034;-74
2021/11/06 06:07:08;;;;;;;24.10;16.87;;;10.10;99.90;;;;;;5121614;27;39639;-74
2021/11/06 06:09:35;;;;;;;24.97;17.50;;;10.20;99.90;;;;;;5145218;27;37461;-73
2021/11/06 06:12:01;;;;;;;23.73;17.87;;;10.20;99.90;;;;;;5145022;27;40353;-74
2021/11/06 06:14:27;;;;;;;25.60;18.27;;;10.20;99.90;;;;;;5149013;27;46945;-74
2021/11/06 06:16:55;;;;;;;22.67;17.20;;;10.20;99.90;;;;;;5126967;27;39332;-74
2021/11/06 06:19:21;;;;;;;21.27;16.33;;;10.20;99.90;;;;;;5122857;27;38746;-74
2021/11/06 06:21:47;;;;;;;22.20;17.73;;;10.20;99.90;;;;;;5130841;27;37484;-74
2021/11/06 06:24:13;;;;;;;22.77;17.63;;;10.20;99.90;;;;;;5143242;27;36795;-74
2021/11/06 06:26:39;;;;;;;26.07;18.27;;;10.20;99.90;;;;;;5124801;27;36066;-74
2021/11/06 06:29:05;;;;;;;25.90;18.53;;;10.20;99.90;;;;;;5144571;27;37530;-74
2021/11/06 06:31:32;;;;;;;22.10;18.10;;;10.20;99.90;;;;;;5124057;27;39242;-73
2021/11/06 06:33:58;;;;;;;26.00;18.07;;;10.10;99.90;;;;;;5133594;27;38865;-73
2021/11/06 06:36:24;;;;;;;21.30;16.37;;;10.20;99.90;;;;;;5126404;27;38777;-73
2021/11/06 06:38:50;;;;;;;26.43;18.83;;;10.20;99.90;;;;;;5149129;27;37401;-73
2021/11/06 06:41:16;;;;;;;22.40;17.63;;;10.20;99.90;;;;;;5142748;27;39117;-74
2021/11/06 06:43:42;;;;;;;22.93;15.97;;;10.20;99.90;;;;;;5127270;27;39792;-73
2021/11/06 06:46:08;;;;;;;23.43;16.07;;;10.20;99.90;;;;;;5126676;27;38427;-74
2021/11/06 06:48:34;;;;;;;23.03;16.40;;;10.20;99.90;;;;;;5150617;27;36194;-73
2021/11/06 06:51:01;;;;;;;21.57;15.63;;;10.10;99.90;;;;;;5135965;27;41193;-73
2021/11/06 06:53:27;;;;;;;20.00;15.90;;;10.20;99.90;;;;;;5128022;27;46830;-74
2021/11/06 06:55:53;;;;;;;23.03;15.87;;;10.10;99.90;;;;;;5136871;27;38890;-73
2021/11/06 06:58:20;;;;;;;21.13;16.23;;;10.10;99.90;;;;;;5138351;27;38551;-73
2021/11/06 07:00:47;;;;;;;22.00;15.67;;;10.10;99.90;;;;;;5130223;27;37646;-73
2021/11/06 07:03:13;;;;;;;22.17;17.63;;;10.10;99.90;;;;;;5137121;27;38810;-73
2021/11/06 07:05:39;;;;;;;23.20;16.67;;;10.10;99.90;;;;;;5120322;27;37116;-73
2021/11/06 07:08:06;;;;;;;18.67;14.60;;;10.10;99.90;;;;;;5123368;27;37992;-73
2021/11/06 07:10:34;;;;;;;19.97;15.90;;;10.10;99.90;;;;;;5135317;27;40573;-73
2021/11/06 07:13:00;;;;;;;21.73;14.43;;;10.10;99.90;;;;;;5129571;27;38328;-73
2021/11/06 07:15:26;;;;;;;20.43;14.60;;;10.10;99.90;;;;;;5127621;27;36662;-73
2021/11/06 07:17:53;;;;;;;19.33;14.33;;;10.10;99.90;;;;;;5133207;27;37301;-73
2021/11/06 07:20:20;;;;;;;19.57;14.37;;;10.10;99.90;;;;;;5135233;27;39521;-73
2021/11/06 07:22:47;;;;;;;17.37;13.13;;;10.10;99.90;;;;;;5135611;27;37623;-73
2021/11/06 07:25:13;;;;;;;20.30;14.20;;;10.10;99.90;;;;;;5128294;27;37270;-74
2021/11/06 07:27:39;;;;;;;21.07;14.63;;;10.10;99.90;;;;;;5135883;27;37387;-74
2021/11/06 07:30:07;;;;;;;20.10;13.53;;;10.10;99.90;;;;;;5133038;27;39906;-74
2021/11/06 07:32:34;;;;;;;19.90;13.87;;;10.10;99.90;;;;;;5134558;27;47950;-73
2021/11/06 07:35:00;;;;;;;16.53;12.87;;;10.20;99.90;;;;;;5126018;27;37496;-73
2021/11/06 07:37:27;;;;;;;16.07;12.93;;;10.20;99.90;;;;;;5127683;27;47144;-73
2021/11/06 07:39:53;;;;;;;15.63;12.97;;;10.20;99.90;;;;;;5126078;27;40830;-74
2021/11/06 07:42:19;;;;;;;16.20;12.13;;;10.30;99.90;;;;;;5110113;27;38955;-74
2021/11/06 07:44:45;;;;;;;13.43;11.17;;;10.30;99.90;;;;;;5111330;27;38973;-75
2021/11/06 07:47:12;;;;;;;15.10;10.60;;;10.40;99.90;;;;;;5117717;27;36559;-73
2021/11/06 07:49:38;;;;;;;14.53;9.93;;;10.40;99.90;;;;;;5132192;27;37823;-73
2021/11/06 07:52:04;;;;;;;12.50;9.90;;;10.40;99.90;;;;;;5128595;27;37611;-74
2021/11/06 07:54:30;;;;;;;13.20;9.93;;;10.50;99.90;;;;;;5127385;27;37316;-74
2021/11/06 07:56:56;;;;;;;14.47;11.00;;;10.60;99.90;;;;;;5131167;27;38053;-74
2021/11/06 07:59:22;;;;;;;11.20;8.43;;;10.60;99.90;;;;;;5129959;27;40811;-74
2021/11/06 08:01:48;;;;;;;11.67;8.57;;;10.70;99.90;;;;;;5130709;27;39441;-73
2021/11/06 08:04:15;;;;;;;12.50;8.70;;;10.70;99.90;;;;;;5123755;27;39835;-73
2021/11/06 08:06:42;;;;;;;14.53;8.93;;;10.70;99.90;;;;;;5133036;27;37037;-74
2021/11/06 08:09:08;;;;;;;14.20;9.17;;;10.70;99.90;;;;;;5133021;27;40059;-74
2021/11/06 08:11:34;;;;;;;11.00;8.60;;;10.70;99.90;;;;;;5133985;27;38303;-73
2021/11/06 08:14:00;;;;;;;14.37;9.43;;;10.80;99.90;;;;;;5124623;27;36991;-73
2021/11/06 08:16:26;;;;;;;11.93;9.20;;;10.70;99.90;;;;;;5130192;27;47141;-73
2021/11/06 08:18:52;;;;;;;13.97;8.97;;;10.80;99.90;;;;;;5133014;27;37890;-73
2021/11/06 08:21:18;;;;;;;13.00;8.67;;;10.80;99.90;;;;;;5128756;27;38245;-73
2021/11/06 08:23:45;;;;;;;11.83;8.80;;;10.80;99.90;;;;;;5125751;27;40561;-74
2021/11/06 08:26:11;;;;;;;11.33;8.03;;;10.90;99.90;;;;;;5126112;27;38778;-73
2021/11/06 08:28:38;;;;;;;10.63;7.70;;;11.00;99.90;;;;;;5131185;27;38805;-73
2021/11/06 08:31:04;;;;;;;12.83;7.73;;;11.00;99.90;;;;;;5128637;27;37406;-74
2021/11/06 08:33:32;;;;;;;9.47;7.23;;;11.10;99.90;;;;;;5135930;27;37890;-73
2021/11/06 08:36:02;;;;;;;11.37;7.27;;;11.20;99.90;;;;;;5129913;27;37277;-73
2021/11/06 08:38:29;;;;;;;11.50;7.23;;;11.30;99.90;;;;;;5132534;27;45878;-75
2021/11/06 08:40:55;;;;;;;9.10;6.23;;;11.40;99.90;;;;;;5132904;27;39135;-73
2021/11/06 08:43:21;;;;;;;10.68;7.93;;;11.40;99.90;;;;;;5131038;27;36787;-73
2021/11/06 08:45:47;;;;;;;9.33;6.43;;;11.40;99.90;;;;;;5121437;27;36317;-73
2021/11/06 08:48:14;;;;;;;11.00;6.80;;;11.40;99.90;;;;;;5106510;27;38975;-73
2021/11/06 08:50:40;;;;;;;11.50;6.97;;;11.40;99.90;;;;;;5133522;27;38263;-73
2021/11/06 08:53:07;;;;;;;9.50;6.47;;;11.50;99.90;;;;;;5139740;27;38794;-73
2021/11/06 08:55:33;;;;;;;8.77;6.30;;;11.40;99.90;;;;;;5121892;27;35620;-73
2021/11/06 08:58:00;;;;;;;10.57;6.53;;;11.50;99.90;;;;;;5145118;27;38717;-73
2021/11/06 09:00:33;;;;;;;8.60;6.27;;;11.60;99.90;;;;;;5150143;27;47399;-73
2021/11/06 09:03:02;;;;;;;10.45;6.55;;;11.60;99.90;;;;;;5124139;27;37889;-73
2021/11/06 09:05:29;;;;;;;7.90;5.55;;;11.70;99.90;;;;;;5124327;27;47223;-73
2021/11/06 09:07:58;;;;;;;7.95;6.05;;;11.70;99.90;;;;;;5153496;27;20111;-73
2021/11/06 09:10:24;;;;;;;7.47;5.50;;;11.80;99.90;;;;;;5131131;27;37577;-73
2021/11/06 09:12:50;;;;;;;10.95;5.97;;;11.90;99.90;;;;;;5136476;27;36642;-73
2021/11/06 09:15:17;;;;;;;7.82;5.95;;;11.90;99.90;;;;;;5126810;27;37716;-73
2021/11/06 09:17:43;;;;;;;10.48;5.70;;;11.90;99.90;;;;;;5140102;27;37990;-73
2021/11/06 09:20:09;;;;;;;8.30;5.90;;;11.90;99.90;;;;;;5157544;27;37662;-73
2021/11/06 09:22:37;;;;;;;6.25;5.07;;;12.00;99.90;;;;;;5121338;27;39799;-73
2021/11/06 09:25:05;;;;;;;10.25;5.53;;;12.00;99.90;;;;;;5115182;27;38233;-73
2021/11/06 09:27:31;;;;;;;8.73;5.60;;;12.00;99.90;;;;;;5116188;27;46924;-73
2021/11/06 09:29:57;;;;;;;8.02;5.20;;;12.00;99.90;;;;;;5117196;27;39774;-73
2021/11/06 09:32:24;;;;;;;7.45;5.57;;;12.00;99.90;;;;;;5114001;27;36027;-73
2021/11/06 09:34:50;;;;;;;10.18;5.70;;;12.10;99.90;;;;;;5117203;27;36055;-73
2021/11/06 09:37:16;;;;;;;9.65;5.90;;;12.10;99.90;;;;;;5145854;27;38927;-74
2021/11/06 09:39:42;;;;;;;11.63;6.28;;;12.10;99.90;;;;;;5134082;27;38554;-73
2021/11/06 09:42:08;;;;;;;11.45;6.22;;;12.10;99.90;;;;;;5135981;27;38772;-75
2021/11/06 09:44:35;;;;;;;8.63;5.28;;;12.20;99.90;;;;;;5129715;27;37233;-73
2021/11/06 09:47:08;;;;;;;8.60;4.60;;;12.10;99.90;;;;;;5127237;27;40229;-73
2021/11/06 09:49:40;;;;;;;8.07;4.80;;;12.10;99.90;;;;;;5126143;27;47348;-74
2021/11/06 09:52:07;;;;;;;7.05;4.63;;;12.10;99.90;;;;;;5128247;27;37450;-73
2021/11/06 09:54:34;;;;;;;9.75;5.03;;;12.10;99.90;;;;;;5129071;27;37088;-72
2021/11/06 09:57:00;;;;;;;5.45;4.38;;;12.20;99.90;;;;;;5126286;27;38065;-73
2021/11/06 09:59:27;;;;;;;8.23;4.30;;;12.30;99.90;;;;;;5114179;27;38572;-72
2021/11/06 10:01:53;;;;;;;9.27;4.65;;;12.40;99.90;;;;;;5136238;27;38737;-74
2021/11/06 10:04:19;;;;;;;8.20;4.55;;;12.30;99.90;;;;;;5126601;27;36148;-73
2021/11/06 10:06:47;;;;;;;8.30;4.70;;;12.30;99.90;;;;;;5128864;27;38393;-73
2021/11/06 10:09:15;;;;;;;6.75;4.60;;;12.40;99.90;;;;;;5128931;27;38399;-73
2021/11/06 10:11:46;;;;;;;6.97;4.28;;;12.40;99.90;;;;;;5130359;27;40658;-73
2021/11/06 10:14:21;;;;;;;7.65;4.40;;;12.50;99.90;;;;;;5129991;27;37570;-74
2021/11/06 10:16:50;;;;;;;9.82;4.60;;;12.50;99.90;;;;;;5131452;27;37944;-73
2021/11/06 10:19:36;;;;;;;7.47;4.28;;;12.60;99.90;;;;;;5132708;27;39367;-74
2021/11/06 10:22:25;;;;;;;8.27;4.55;;;12.60;99.90;;;;;;5133203;27;38022;-75
2021/11/06 10:24:57;;;;;;;9.20;4.07;;;12.70;99.90;;;;;;5133633;27;37229;-75
2021/11/06 10:27:31;;;;;;;7.10;4.13;;;12.60;99.90;;;;;;5130493;27;38169;-74
2021/11/06 10:30:16;;;;;;;8.18;4.43;;;12.60;99.90;;;;;;5126194;27;37189;-74
2021/11/06 10:32:54;;;;;;;6.85;4.20;;;12.70;99.90;;;;;;5136747;27;48551;-74
2021/11/06 10:35:23;;;;;;;8.15;3.85;;;12.70;99.90;;;;;;5123960;27;35975;-74
2021/11/06 10:37:59;;;;;;;7.47;4.93;;;12.90;99.90;;;;;;5131650;27;39365;-74
2021/11/06 10:40:30;;;;;;;6.40;4.43;;;12.90;99.90;;;;;;5131735;27;39146;-74
2021/11/06 10:43:00;;;;;;;7.53;4.07;;;13.10;99.90;;;;;;5128066;27;36952;-75
2021/11/06 10:45:35;;;;;;;8.00;4.78;;;13.10;99.90;;;;;;5136806;27;36943;-74
2021/11/06 10:48:07;;;;;;;6.65;3.92;;;13.20;99.90;;;;;;5136799;27;39575;-73
2021/11/06 10:50:57;;;;;;;6.70;3.80;;;13.10;99.90;;;;;;5135741;27;48534;-75
2021/11/06 10:53:44;;;;;;;6.85;4.28;;;13.20;99.90;;;;;;5131059;27;38962;-72
2021/11/06 10:56:13;;;;;;;8.38;4.50;;;13.30;99.90;;;;;;5136658;27;37500;-76
2021/11/06 10:58:42;;;;;;;11.15;4.32;;;13.30;99.90;;;;;;5141358;27;38694;-75
2021/11/06 11:01:11;;;;;;;7.13;4.20;;;13.40;99.90;;;;;;5132723;27;37418;-76
2021/11/06 11:03:42;;;;;;;7.55;4.35;;;13.30;99.90;;;;;;5139055;27;38812;-75
2021/11/06 11:06:11;;;;;;;8.05;3.88;;;13.20;99.90;;;;;;5129863;27;37181;-75
2021/11/06 11:08:52;;;;;;;8.30;4.80;;;13.30;99.90;;;;;;5136468;27;38757;-75
2021/11/06 11:11:20;;;;;;;11.90;5.00;;;13.30;99.90;;;;;;5129291;27;38019;-73
2021/11/06 11:13:55;;;;;;;9.38;4.60;;;13.30;99.90;;;;;;5138874;27;37103;-73
2021/11/06 11:16:23;;;;;;;7.53;4.78;;;13.30;99.90;;;;;;5134359;27;38072;-76
2021/11/06 11:18:51;;;;;;;9.50;6.00;;;13.20;99.90;;;;;;5139949;27;40381;-73
2021/11/06 11:21:20;;;;;;;8.63;4.88;;;13.00;99.90;;;;;;5144329;27;38466;-74
2021/11/06 11:24:02;;;;;;;8.43;5.28;;;13.00;99.90;;;;;;5134486;27;38107;-75
2021/11/06 11:26:34;;;;;;;10.15;4.90;;;13.00;99.90;;;;;;5130776;27;48529;-74
2021/11/06 11:29:02;;;;;;;8.50;5.00;;;13.10;99.90;;;;;;5143218;27;38303;-75
2021/11/06 11:31:29;;;;;;;10.55;5.00;;;13.10;99.90;;;;;;5129272;27;39079;-75
2021/11/06 11:33:57;;;;;;;8.00;4.70;;;13.30;99.90;;;;;;5135329;27;37821;-75
2021/11/06 11:36:27;;;;;;;7.43;4.43;;;13.30;99.90;;;;;;5141409;27;37355;-74
2021/11/06 11:38:56;;;;;;;7.75;4.85;;;13.40;99.90;;;;;;5134812;27;38696;-74
2021/11/06 11:41:49;;;;;;;9.13;4.88;;;13.40;99.90;;;;;;5137044;27;39562;-74
2021/11/06 11:44:21;;;;;;;11.38;5.38;;;13.20;99.90;;;;;;5131352;27;38016;-74
2021/11/06 11:46:52;;;;;;;8.20;4.75;;;13.10;99.90;;;;;;5135357;27;36958;-75
2021/11/06 11:49:20;;;;;;;9.15;5.63;;;13.10;99.90;;;;;;5159835;27;38210;-75
2021/11/06 11:51:46;;;;;;;8.77;5.65;;;13.00;99.90;;;;;;5127891;27;38654;-74
2021/11/06 11:54:13;;;;;;;10.27;5.82;;;13.00;99.90;;;;;;5122846;27;36834;-77
2021/11/06 11:56:40;;;;;;;10.63;5.63;;;13.00;99.90;;;;;;5121544;27;36275;-75
2021/11/06 11:59:07;;;;;;;8.88;5.03;;;13.10;99.90;;;;;;5127191;27;39646;-75
2021/11/06 12:01:34;;;;;;;9.32;4.97;;;13.20;99.90;;;;;;5141525;27;37452;-74
2021/11/06 12:04:18;;;;;;;6.63;5.07;;;13.20;99.90;;;;;;5130507;27;37228;-75
2021/11/06 12:06:45;;;;;;;10.10;5.20;;;13.20;99.90;;;;;;5127914;27;48591;-74
2021/11/06 12:09:11;;;;;;;7.72;4.65;;;13.20;99.90;;;;;;5126070;27;42066;-75
2021/11/06 12:11:46;;;;;;;11.60;5.35;;;13.20;99.90;;;;;;5122952;27;38712;-75
2021/11/06 12:14:22;;;;;;;8.02;5.38;;;13.20;99.90;;;;;;5143256;27;38173;-75
2021/11/06 12:16:55;;;;;;;8.93;5.95;;;13.30;99.90;;;;;;5128914;27;36490;-74
2021/11/06 12:19:40;;;;;;;7.70;4.85;;;13.30;99.90;;;;;;5143091;27;38022;-75
2021/11/06 12:22:21;;;;;;;10.20;5.40;;;13.30;99.90;;;;;;5135907;27;37421;-74
2021/11/06 12:24:51;;;;;;;10.40;5.55;;;13.30;99.90;;;;;;5142439;27;38090;-74
2021/11/06 12:27:33;;;;;;;6.68;4.95;;;13.20;99.90;;;;;;5156966;27;38015;-73
2021/11/06 12:29:59;;;;;;;9.32;5.93;;;13.30;99.90;;;;;;5155407;27;38938;-74
2021/11/06 12:32:32;;;;;;;11.20;5.43;;;13.30;99.90;;;;;;5159718;27;39208;-73
2021/11/06 12:35:10;;;;;;;12.55;5.63;;;13.30;99.90;;;;;;5160811;27;38966;-74
2021/11/06 12:37:36;;;;;;;7.80;5.10;;;13.40;99.90;;;;;;5156835;27;48670;-74
2021/11/06 12:40:19;;;;;;;9.40;5.70;;;13.30;99.90;;;;;;5141866;27;37778;-74